sensor_id;sensor_type;location;lat;lon;timestamp;pressure;altitude;pressure_sealevel;temperature;humidity
56582;BME280;42463;52.214;21.238;2023-04-03T00:01:07;100876.28;;;4.93;49.72
56582;BME280;42463;52.214;21.238;2023-04-03T00:03:13;100873.34;;;4.86;49.23
56582;BME280;42463;52.214;21.238;2023-04-03T00:05:19;100877.67;;;4.75;49.31
56582;BME280;42463;52.214;21.238;2023-04-03T00:07:25;100881.27;;;4.70;49.63
56582;BME280;42463;52.214;21.238;2023-04-03T00:09:30;100886.17;;;4.68;49.47
56582;BME280;42463;52.214;21.238;2023-04-03T00:11:36;100885.27;;;4.68;49.96
56582;BME280;42463;52.214;21.238;2023-04-03T00:13:42;100882.50;;;4.65;49.30
56582;BME280;42463;52.214;21.238;2023-04-03T00:15:47;100885.67;;;4.60;49.45
56582;BME280;42463;52.214;21.238;2023-04-03T00:17:53;100885.50;;;4.57;49.56
56582;BME280;42463;52.214;21.238;2023-04-03T00:19:58;100889.19;;;4.58;49.71
56582;BME280;42463;52.214;21.238;2023-04-03T00:22:04;100885.91;;;4.56;49.50
56582;BME280;42463;52.214;21.238;2023-04-03T00:24:09;100886.52;;;4.55;49.45
56582;BME280;42463;52.214;21.238;2023-04-03T00:26:14;100883.55;;;4.56;49.36
56582;BME280;42463;52.214;21.238;2023-04-03T00:28:20;100893.02;;;4.50;49.23
56582;BME280;42463;52.214;21.238;2023-04-03T00:30:26;100891.02;;;4.45;49.63
56582;BME280;42463;52.214;21.238;2023-04-03T00:32:32;100892.52;;;4.40;49.45
56582;BME280;42463;52.214;21.238;2023-04-03T00:34:37;100891.77;;;4.35;49.32
56582;BME280;42463;52.214;21.238;2023-04-03T00:36:43;100895.02;;;4.32;49.51
56582;BME280;42463;52.214;21.238;2023-04-03T00:38:49;100889.57;;;4.33;49.78
56582;BME280;42463;52.214;21.238;2023-04-03T00:40:54;100894.20;;;4.35;49.63
56582;BME280;42463;52.214;21.238;2023-04-03T00:43:00;100891.44;;;4.36;49.49
56582;BME280;42463;52.214;21.238;2023-04-03T00:47:39;100896.85;;;4.35;49.26
56582;BME280;42463;52.214;21.238;2023-04-03T00:49:46;100899.69;;;4.34;49.29
56582;BME280;42463;52.214;21.238;2023-04-03T00:51:52;100897.13;;;4.33;49.31
56582;BME280;42463;52.214;21.238;2023-04-03T00:54:00;100897.66;;;4.30;48.96
56582;BME280;42463;52.214;21.238;2023-04-03T00:56:10;100894.30;;;4.25;48.94
56582;BME280;42463;52.214;21.238;2023-04-03T00:58:19;100896.19;;;4.22;48.96
56582;BME280;42463;52.214;21.238;2023-04-03T01:03:39;100902.92;;;4.25;49.25
56582;BME280;42463;52.214;21.238;2023-04-03T01:05:44;100901.46;;;4.30;49.23
56582;BME280;42463;52.214;21.238;2023-04-03T01:07:50;100906.08;;;4.27;48.66
56582;BME280;42463;52.214;21.238;2023-04-03T01:09:58;100913.38;;;4.23;48.74
56582;BME280;42463;52.214;21.238;2023-04-03T01:12:19;100914.34;;;4.19;48.41
56582;BME280;42463;52.214;21.238;2023-04-03T01:14:25;100915.19;;;4.08;48.65
56582;BME280;42463;52.214;21.238;2023-04-03T01:16:31;100918.31;;;4.06;49.13
56582;BME280;42463;52.214;21.238;2023-04-03T01:18:39;100921.17;;;4.08;49.05
56582;BME280;42463;52.214;21.238;2023-04-03T01:21:08;100920.25;;;4.05;48.94
56582;BME280;42463;52.214;21.238;2023-04-03T01:23:26;100926.07;;;3.96;48.64
56582;BME280;42463;52.214;21.238;2023-04-03T01:25:38;100926.77;;;3.90;48.60
56582;BME280;42463;52.214;21.238;2023-04-03T01:27:44;100930.83;;;3.91;48.92
56582;BME280;42463;52.214;21.238;2023-04-03T01:29:49;100934.50;;;3.91;48.64
56582;BME280;42463;52.214;21.238;2023-04-03T01:31:58;100938.58;;;3.89;48.70
56582;BME280;42463;52.214;21.238;2023-04-03T01:34:04;100943.46;;;3.84;48.93
56582;BME280;42463;52.214;21.238;2023-04-03T01:36:15;100941.92;;;3.81;48.86
56582;BME280;42463;52.214;21.238;2023-04-03T01:38:21;100945.88;;;3.80;48.59
56582;BME280;42463;52.214;21.238;2023-04-03T01:40:28;100940.39;;;3.74;48.47
56582;BME280;42463;52.214;21.238;2023-04-03T01:42:34;100952.02;;;3.78;48.68
56582;BME280;42463;52.214;21.238;2023-04-03T01:44:39;100953.56;;;3.80;49.08
56582;BME280;42463;52.214;21.238;2023-04-03T01:46:45;100955.53;;;3.84;48.82
56582;BME280;42463;52.214;21.238;2023-04-03T01:48:50;100952.08;;;3.87;48.83
56582;BME280;42463;52.214;21.238;2023-04-03T01:50:56;100955.48;;;3.90;49.18
56582;BME280;42463;52.214;21.238;2023-04-03T01:53:02;100956.03;;;3.93;49.00
56582;BME280;42463;52.214;21.238;2023-04-03T01:55:09;100960.27;;;3.88;48.41
56582;BME280;42463;52.214;21.238;2023-04-03T01:57:14;100960.60;;;3.84;48.54
56582;BME280;42463;52.214;21.238;2023-04-03T01:59:20;100965.64;;;3.83;49.05
56582;BME280;42463;52.214;21.238;2023-04-03T02:01:26;100966.09;;;3.84;48.60
56582;BME280;42463;52.214;21.238;2023-04-03T02:03:31;100970.33;;;3.80;48.36
56582;BME280;42463;52.214;21.238;2023-04-03T02:05:37;100973.95;;;3.78;48.56
56582;BME280;42463;52.214;21.238;2023-04-03T02:07:43;100972.91;;;3.78;48.59
56582;BME280;42463;52.214;21.238;2023-04-03T02:09:49;100969.77;;;3.76;48.45
56582;BME280;42463;52.214;21.238;2023-04-03T02:11:55;100973.23;;;3.70;48.57
56582;BME280;42463;52.214;21.238;2023-04-03T02:14:01;100976.96;;;3.68;48.56
56582;BME280;42463;52.214;21.238;2023-04-03T02:16:10;100967.56;;;3.57;48.43
56582;BME280;42463;52.214;21.238;2023-04-03T02:18:17;100973.90;;;3.56;48.44
56582;BME280;42463;52.214;21.238;2023-04-03T02:20:22;100977.04;;;3.50;48.49
56582;BME280;42463;52.214;21.238;2023-04-03T02:22:27;100980.92;;;3.45;48.56
56582;BME280;42463;52.214;21.238;2023-04-03T02:24:33;100980.40;;;3.37;48.64
56582;BME280;42463;52.214;21.238;2023-04-03T02:26:38;100973.73;;;3.30;48.81
56582;BME280;42463;52.214;21.238;2023-04-03T02:28:44;100977.83;;;3.30;49.08
56582;BME280;42463;52.214;21.238;2023-04-03T02:30:50;100983.27;;;3.30;49.28
56582;BME280;42463;52.214;21.238;2023-04-03T02:32:56;100981.00;;;3.26;49.15
56582;BME280;42463;52.214;21.238;2023-04-03T02:35:03;100983.08;;;3.23;49.26
56582;BME280;42463;52.214;21.238;2023-04-03T02:37:10;100981.28;;;3.12;49.03
56582;BME280;42463;52.214;21.238;2023-04-03T02:39:16;100985.29;;;3.06;49.30
56582;BME280;42463;52.214;21.238;2023-04-03T02:41:22;100984.79;;;3.05;49.48
56582;BME280;42463;52.214;21.238;2023-04-03T02:43:30;100982.77;;;3.03;49.65
56582;BME280;42463;52.214;21.238;2023-04-03T02:45:35;100984.49;;;3.05;49.51
56582;BME280;42463;52.214;21.238;2023-04-03T02:47:41;100989.30;;;3.11;49.98
56582;BME280;42463;52.214;21.238;2023-04-03T02:49:47;100988.19;;;3.17;50.04
56582;BME280;42463;52.214;21.238;2023-04-03T02:51:53;100990.63;;;3.18;49.65
56582;BME280;42463;52.214;21.238;2023-04-03T02:53:59;100988.11;;;3.08;49.24
56582;BME280;42463;52.214;21.238;2023-04-03T02:56:06;100989.73;;;3.02;49.60
56582;BME280;42463;52.214;21.238;2023-04-03T02:58:12;100993.77;;;3.01;49.73
56582;BME280;42463;52.214;21.238;2023-04-03T03:00:20;100993.15;;;3.02;49.88
56582;BME280;42463;52.214;21.238;2023-04-03T03:02:25;100991.48;;;3.04;50.02
56582;BME280;42463;52.214;21.238;2023-04-03T03:04:31;100985.88;;;3.00;49.78
56582;BME280;42463;52.214;21.238;2023-04-03T03:06:37;100990.32;;;2.99;49.95
56582;BME280;42463;52.214;21.238;2023-04-03T03:08:42;100986.23;;;2.98;50.04
56582;BME280;42463;52.214;21.238;2023-04-03T03:10:48;100986.82;;;2.98;50.09
56582;BME280;42463;52.214;21.238;2023-04-03T03:12:55;100989.83;;;2.98;50.59
56582;BME280;42463;52.214;21.238;2023-04-03T03:15:01;100989.14;;;3.00;50.39
56582;BME280;42463;52.214;21.238;2023-04-03T03:17:07;100992.09;;;2.98;50.17
56582;BME280;42463;52.214;21.238;2023-04-03T03:19:12;100991.23;;;2.95;50.26
56582;BME280;42463;52.214;21.238;2023-04-03T03:21:18;100993.33;;;2.91;50.44
56582;BME280;42463;52.214;21.238;2023-04-03T03:23:25;100995.71;;;2.90;50.42
56582;BME280;42463;52.214;21.238;2023-04-03T03:25:30;100993.39;;;2.88;50.19
56582;BME280;42463;52.214;21.238;2023-04-03T03:27:36;100999.19;;;2.88;50.36
56582;BME280;42463;52.214;21.238;2023-04-03T03:29:44;100997.97;;;2.84;50.56
56582;BME280;42463;52.214;21.238;2023-04-03T03:31:51;100998.88;;;2.82;50.72
56582;BME280;42463;52.214;21.238;2023-04-03T03:33:56;101000.22;;;2.79;50.75
56582;BME280;42463;52.214;21.238;2023-04-03T03:36:02;101001.05;;;2.80;50.79
56582;BME280;42463;52.214;21.238;2023-04-03T03:38:08;101004.06;;;2.80;50.78
56582;BME280;42463;52.214;21.238;2023-04-03T03:40:14;101008.08;;;2.78;50.86
56582;BME280;42463;52.214;21.238;2023-04-03T03:42:20;101011.48;;;2.77;50.95
56582;BME280;42463;52.214;21.238;2023-04-03T03:44:27;101007.17;;;2.78;51.02
56582;BME280;42463;52.214;21.238;2023-04-03T03:46:33;101013.02;;;2.80;51.16
56582;BME280;42463;52.214;21.238;2023-04-03T03:48:39;101011.74;;;2.82;51.14
56582;BME280;42463;52.214;21.238;2023-04-03T03:50:44;101009.17;;;2.79;51.02
56582;BME280;42463;52.214;21.238;2023-04-03T03:52:50;101009.89;;;2.75;51.05
56582;BME280;42463;52.214;21.238;2023-04-03T03:54:56;101014.41;;;2.70;51.26
56582;BME280;42463;52.214;21.238;2023-04-03T03:57:01;101015.85;;;2.66;51.17
56582;BME280;42463;52.214;21.238;2023-04-03T03:59:10;101018.05;;;2.64;51.41
56582;BME280;42463;52.214;21.238;2023-04-03T04:01:16;101021.67;;;2.64;51.52
56582;BME280;42463;52.214;21.238;2023-04-03T04:03:24;101023.13;;;2.61;51.11
56582;BME280;42463;52.214;21.238;2023-04-03T04:05:30;101024.02;;;2.59;51.29
56582;BME280;42463;52.214;21.238;2023-04-03T04:07:37;101025.84;;;2.57;51.73
56582;BME280;42463;52.214;21.238;2023-04-03T04:09:42;101026.65;;;2.56;51.61
56582;BME280;42463;52.214;21.238;2023-04-03T04:11:48;101024.23;;;2.54;51.60
56582;BME280;42463;52.214;21.238;2023-04-03T04:13:54;101026.16;;;2.50;51.88
56582;BME280;42463;52.214;21.238;2023-04-03T04:16:03;101031.36;;;2.47;51.73
56582;BME280;42463;52.214;21.238;2023-04-03T04:18:08;101027.77;;;2.47;51.86
56582;BME280;42463;52.214;21.238;2023-04-03T04:20:15;101031.93;;;2.47;51.86
56582;BME280;42463;52.214;21.238;2023-04-03T04:22:21;101035.46;;;2.50;51.88
56582;BME280;42463;52.214;21.238;2023-04-03T04:24:26;101037.17;;;2.48;51.76
56582;BME280;42463;52.214;21.238;2023-04-03T04:26:32;101041.72;;;2.40;51.75
56582;BME280;42463;52.214;21.238;2023-04-03T04:28:38;101035.77;;;2.32;52.13
56582;BME280;42463;52.214;21.238;2023-04-03T04:30:44;101044.37;;;2.34;52.26
56582;BME280;42463;52.214;21.238;2023-04-03T04:32:51;101045.36;;;2.35;52.09
56582;BME280;42463;52.214;21.238;2023-04-03T04:34:56;101049.19;;;2.28;51.98
56582;BME280;42463;52.214;21.238;2023-04-03T04:37:02;101050.88;;;2.29;52.35
56582;BME280;42463;52.214;21.238;2023-04-03T04:39:08;101054.27;;;2.31;52.41
56582;BME280;42463;52.214;21.238;2023-04-03T04:41:14;101052.07;;;2.28;52.19
56582;BME280;42463;52.214;21.238;2023-04-03T04:43:20;101056.61;;;2.26;52.36
56582;BME280;42463;52.214;21.238;2023-04-03T04:45:28;101055.96;;;2.24;52.09
56582;BME280;42463;52.214;21.238;2023-04-03T04:47:33;101061.00;;;2.25;51.99
56582;BME280;42463;52.214;21.238;2023-04-03T04:49:39;101062.36;;;2.27;52.28
56582;BME280;42463;52.214;21.238;2023-04-03T04:51:45;101063.52;;;2.28;52.13
56582;BME280;42463;52.214;21.238;2023-04-03T04:53:51;101062.38;;;2.25;51.95
56582;BME280;42463;52.214;21.238;2023-04-03T04:55:57;101067.80;;;2.25;52.37
56582;BME280;42463;52.214;21.238;2023-04-03T04:58:03;101069.59;;;2.27;52.21
56582;BME280;42463;52.214;21.238;2023-04-03T05:00:11;101071.63;;;2.30;52.28
56582;BME280;42463;52.214;21.238;2023-04-03T05:02:17;101075.30;;;2.37;52.45
56582;BME280;42463;52.214;21.238;2023-04-03T05:04:23;101073.52;;;2.39;52.13
56582;BME280;42463;52.214;21.238;2023-04-03T05:06:32;101075.46;;;2.40;51.94
56582;BME280;42463;52.214;21.238;2023-04-03T05:08:39;101075.31;;;2.38;51.92
56582;BME280;42463;52.214;21.238;2023-04-03T05:10:45;101083.04;;;2.36;52.12
56582;BME280;42463;52.214;21.238;2023-04-03T05:12:52;101083.66;;;2.37;52.28
56582;BME280;42463;52.214;21.238;2023-04-03T05:14:58;101085.25;;;2.38;52.31
56582;BME280;42463;52.214;21.238;2023-04-03T05:17:04;101086.37;;;2.42;52.43
56582;BME280;42463;52.214;21.238;2023-04-03T05:19:11;101089.37;;;2.41;51.77
56582;BME280;42463;52.214;21.238;2023-04-03T05:21:17;101088.27;;;2.37;51.91
56582;BME280;42463;52.214;21.238;2023-04-03T05:23:23;101091.50;;;2.30;52.01
56582;BME280;42463;52.214;21.238;2023-04-03T05:25:30;101096.23;;;2.26;51.85
56582;BME280;42463;52.214;21.238;2023-04-03T05:27:37;101095.24;;;2.21;51.76
56582;BME280;42463;52.214;21.238;2023-04-03T05:29:42;101095.48;;;2.20;51.90
56582;BME280;42463;52.214;21.238;2023-04-03T05:31:50;101095.48;;;2.23;52.12
56582;BME280;42463;52.214;21.238;2023-04-03T05:33:55;101099.66;;;2.24;51.94
56582;BME280;42463;52.214;21.238;2023-04-03T05:36:05;101103.91;;;2.31;52.27
56582;BME280;42463;52.214;21.238;2023-04-03T05:38:13;101098.47;;;2.36;52.18
56582;BME280;42463;52.214;21.238;2023-04-03T05:40:19;101099.88;;;2.39;52.02
56582;BME280;42463;52.214;21.238;2023-04-03T05:42:27;101105.39;;;2.40;52.03
56582;BME280;42463;52.214;21.238;2023-04-03T05:44:32;101110.05;;;2.42;51.79
56582;BME280;42463;52.214;21.238;2023-04-03T05:46:38;101112.06;;;2.41;51.86
56582;BME280;42463;52.214;21.238;2023-04-03T05:48:44;101111.89;;;2.35;51.70
56582;BME280;42463;52.214;21.238;2023-04-03T05:50:52;101116.83;;;2.34;51.75
56582;BME280;42463;52.214;21.238;2023-04-03T05:53:01;101116.61;;;2.35;51.96
56582;BME280;42463;52.214;21.238;2023-04-03T05:55:09;101118.38;;;2.39;51.96
56582;BME280;42463;52.214;21.238;2023-04-03T05:57:14;101114.84;;;2.40;51.80
56582;BME280;42463;52.214;21.238;2023-04-03T05:59:21;101115.18;;;2.40;51.60
56582;BME280;42463;52.214;21.238;2023-04-03T06:01:28;101116.48;;;2.44;51.61
56582;BME280;42463;52.214;21.238;2023-04-03T06:03:34;101119.81;;;2.52;51.64
56582;BME280;42463;52.214;21.238;2023-04-03T06:05:40;101117.65;;;2.57;51.34
56582;BME280;42463;52.214;21.238;2023-04-03T06:07:46;101119.02;;;2.56;51.07
56582;BME280;42463;52.214;21.238;2023-04-03T06:09:54;101115.85;;;2.59;51.38
56582;BME280;42463;52.214;21.238;2023-04-03T06:12:00;101121.26;;;2.63;51.07
56582;BME280;42463;52.214;21.238;2023-04-03T06:14:06;101120.73;;;2.63;50.77
56582;BME280;42463;52.214;21.238;2023-04-03T06:16:15;101121.10;;;2.62;50.44
56582;BME280;42463;52.214;21.238;2023-04-03T06:18:22;101122.96;;;2.63;50.85
56582;BME280;42463;52.214;21.238;2023-04-03T06:20:28;101127.34;;;2.64;50.57
56582;BME280;42463;52.214;21.238;2023-04-03T06:22:33;101129.87;;;2.68;50.73
56582;BME280;42463;52.214;21.238;2023-04-03T06:24:39;101129.83;;;2.71;50.45
56582;BME280;42463;52.214;21.238;2023-04-03T06:26:45;101135.20;;;2.73;50.16
56582;BME280;42463;52.214;21.238;2023-04-03T06:28:51;101138.52;;;2.76;50.57
56582;BME280;42463;52.214;21.238;2023-04-03T06:30:56;101139.14;;;2.80;50.16
56582;BME280;42463;52.214;21.238;2023-04-03T06:33:02;101137.48;;;2.80;49.99
56582;BME280;42463;52.214;21.238;2023-04-03T06:35:09;101137.95;;;2.84;50.54
56582;BME280;42463;52.214;21.238;2023-04-03T06:37:16;101138.96;;;2.89;50.41
56582;BME280;42463;52.214;21.238;2023-04-03T06:39:23;101146.52;;;2.96;49.83
56582;BME280;42463;52.214;21.238;2023-04-03T06:41:28;101141.48;;;3.02;49.90
56582;BME280;42463;52.214;21.238;2023-04-03T06:43:34;101145.40;;;3.06;49.82
56582;BME280;42463;52.214;21.238;2023-04-03T06:45:40;101142.57;;;3.12;49.74
56582;BME280;42463;52.214;21.238;2023-04-03T06:47:46;101148.82;;;3.23;50.15
56582;BME280;42463;52.214;21.238;2023-04-03T06:49:52;101131.84;;;3.28;49.65
56582;BME280;42463;52.214;21.238;2023-04-03T06:51:58;101141.90;;;3.46;49.30
56582;BME280;42463;52.214;21.238;2023-04-03T06:54:05;101147.02;;;3.57;49.36
56582;BME280;42463;52.214;21.238;2023-04-03T06:56:12;101145.90;;;3.66;48.86
56582;BME280;42463;52.214;21.238;2023-04-03T06:58:27;101148.47;;;3.71;48.62
56582;BME280;42463;52.214;21.238;2023-04-03T07:00:34;101144.19;;;3.81;48.73
56582;BME280;42463;52.214;21.238;2023-04-03T07:02:39;101150.80;;;3.95;48.65
56582;BME280;42463;52.214;21.238;2023-04-03T07:04:45;101153.84;;;4.08;48.57
56582;BME280;42463;52.214;21.238;2023-04-03T07:06:50;101155.23;;;4.10;48.11
56582;BME280;42463;52.214;21.238;2023-04-03T07:08:56;101160.45;;;4.19;47.76
56582;BME280;42463;52.214;21.238;2023-04-03T07:11:03;101160.22;;;4.27;47.52
56582;BME280;42463;52.214;21.238;2023-04-03T07:13:09;101166.64;;;4.34;47.51
56582;BME280;42463;52.214;21.238;2023-04-03T07:15:15;101161.14;;;4.39;47.71
56582;BME280;42463;52.214;21.238;2023-04-03T07:17:20;101172.59;;;4.50;46.99
56582;BME280;42463;52.214;21.238;2023-04-03T07:19:26;101173.11;;;4.56;46.99
56582;BME280;42463;52.214;21.238;2023-04-03T07:21:32;101177.28;;;4.60;46.35
56582;BME280;42463;52.214;21.238;2023-04-03T07:23:39;101172.69;;;4.65;46.46
56582;BME280;42463;52.214;21.238;2023-04-03T07:25:45;101165.22;;;4.62;46.06
56582;BME280;42463;52.214;21.238;2023-04-03T07:27:51;101174.89;;;4.73;45.90
56582;BME280;42463;52.214;21.238;2023-04-03T07:29:58;101179.30;;;4.77;45.78
56582;BME280;42463;52.214;21.238;2023-04-03T07:32:05;101178.91;;;4.83;46.28
56582;BME280;42463;52.214;21.238;2023-04-03T07:34:10;101179.75;;;4.92;45.88
56582;BME280;42463;52.214;21.238;2023-04-03T07:36:19;101182.92;;;4.99;45.28
56582;BME280;42463;52.214;21.238;2023-04-03T07:38:25;101180.71;;;5.01;44.89
56582;BME280;42463;52.214;21.238;2023-04-03T07:40:31;101175.16;;;5.01;44.57
56582;BME280;42463;52.214;21.238;2023-04-03T07:42:36;101187.73;;;5.09;44.23
56582;BME280;42463;52.214;21.238;2023-04-03T07:44:42;101186.84;;;5.10;44.41
56582;BME280;42463;52.214;21.238;2023-04-03T07:46:47;101188.94;;;5.18;44.11
56582;BME280;42463;52.214;21.238;2023-04-03T07:48:54;101187.80;;;5.25;44.18
56582;BME280;42463;52.214;21.238;2023-04-03T07:51:03;101188.43;;;5.38;44.23
56582;BME280;42463;52.214;21.238;2023-04-03T07:53:09;101185.98;;;5.51;43.59
56582;BME280;42463;52.214;21.238;2023-04-03T07:55:15;101192.02;;;5.61;42.96
56582;BME280;42463;52.214;21.238;2023-04-03T07:57:20;101193.45;;;5.69;42.60
56582;BME280;42463;52.214;21.238;2023-04-03T07:59:26;101196.86;;;5.77;42.15
56582;BME280;42463;52.214;21.238;2023-04-03T08:01:31;101189.13;;;5.79;41.44
56582;BME280;42463;52.214;21.238;2023-04-03T08:03:37;101176.00;;;5.80;41.99
56582;BME280;42463;52.214;21.238;2023-04-03T08:05:44;101186.71;;;5.90;42.20
56582;BME280;42463;52.214;21.238;2023-04-03T08:07:50;101176.55;;;5.98;42.18
56582;BME280;42463;52.214;21.238;2023-04-03T08:09:55;101187.30;;;6.05;40.85
56582;BME280;42463;52.214;21.238;2023-04-03T08:12:01;101187.91;;;5.99;40.06
56582;BME280;42463;52.214;21.238;2023-04-03T08:14:06;101186.04;;;5.94;40.52
56582;BME280;42463;52.214;21.238;2023-04-03T08:16:15;101187.15;;;5.94;40.49
56582;BME280;42463;52.214;21.238;2023-04-03T08:18:21;101193.49;;;5.97;40.19
56582;BME280;42463;52.214;21.238;2023-04-03T08:20:29;101195.33;;;5.99;39.68
56582;BME280;42463;52.214;21.238;2023-04-03T08:22:35;101191.94;;;6.02;39.64
56582;BME280;42463;52.214;21.238;2023-04-03T08:24:40;101190.20;;;6.06;39.48
56582;BME280;42463;52.214;21.238;2023-04-03T08:26:45;101186.23;;;6.14;39.67
56582;BME280;42463;52.214;21.238;2023-04-03T08:28:51;101190.97;;;6.25;39.94
56582;BME280;42463;52.214;21.238;2023-04-03T08:30:56;101197.20;;;6.36;39.60
56582;BME280;42463;52.214;21.238;2023-04-03T08:33:07;101193.71;;;6.50;39.45
56582;BME280;42463;52.214;21.238;2023-04-03T08:35:13;101193.78;;;6.64;39.63
56582;BME280;42463;52.214;21.238;2023-04-03T08:37:18;101193.77;;;6.72;38.62
56582;BME280;42463;52.214;21.238;2023-04-03T08:39:24;101196.95;;;6.80;38.94
56582;BME280;42463;52.214;21.238;2023-04-03T08:41:34;101201.95;;;6.92;39.89
56582;BME280;42463;52.214;21.238;2023-04-03T08:43:48;101194.73;;;7.04;37.90
56582;BME280;42463;52.214;21.238;2023-04-03T08:46:02;101196.29;;;7.12;37.78
56582;BME280;42463;52.214;21.238;2023-04-03T08:48:14;101191.52;;;7.20;37.16
56582;BME280;42463;52.214;21.238;2023-04-03T08:50:31;101189.73;;;7.31;37.59
56582;BME280;42463;52.214;21.238;2023-04-03T08:52:41;101188.80;;;7.44;37.11
56582;BME280;42463;52.214;21.238;2023-04-03T08:54:52;101195.52;;;7.47;36.69
56582;BME280;42463;52.214;21.238;2023-04-03T08:57:02;101191.14;;;7.50;37.28
56582;BME280;42463;52.214;21.238;2023-04-03T08:59:12;101192.70;;;7.59;37.66
56582;BME280;42463;52.214;21.238;2023-04-03T09:01:23;101192.27;;;7.72;37.35
56582;BME280;42463;52.214;21.238;2023-04-03T09:03:32;101190.81;;;7.81;37.47
56582;BME280;42463;52.214;21.238;2023-04-03T09:05:43;101196.79;;;7.93;36.87
56582;BME280;42463;52.214;21.238;2023-04-03T09:07:56;101199.52;;;7.96;35.84
56582;BME280;42463;52.214;21.238;2023-04-03T09:10:06;101196.89;;;8.01;35.97
56582;BME280;42463;52.214;21.238;2023-04-03T09:12:18;101200.64;;;8.06;35.85
56582;BME280;42463;52.214;21.238;2023-04-03T09:14:36;101201.45;;;8.04;34.85
56582;BME280;42463;52.214;21.238;2023-04-03T09:16:49;101201.92;;;7.96;34.57
56582;BME280;42463;52.214;21.238;2023-04-03T09:19:05;101202.98;;;7.87;34.50
56582;BME280;42463;52.214;21.238;2023-04-03T09:21:19;101193.13;;;7.81;33.95
56582;BME280;42463;52.214;21.238;2023-04-03T09:23:30;101194.52;;;7.82;34.15
56582;BME280;42463;52.214;21.238;2023-04-03T09:25:38;101196.21;;;7.86;35.02
56582;BME280;42463;52.214;21.238;2023-04-03T09:27:44;101196.72;;;7.97;35.28
56582;BME280;42463;52.214;21.238;2023-04-03T09:29:54;101197.97;;;8.09;35.31
56582;BME280;42463;52.214;21.238;2023-04-03T09:32:02;101204.59;;;8.19;35.02
56582;BME280;42463;52.214;21.238;2023-04-03T09:34:22;101206.23;;;8.16;34.77
56582;BME280;42463;52.214;21.238;2023-04-03T09:36:42;101200.95;;;8.05;34.22
56582;BME280;42463;52.214;21.238;2023-04-03T09:39:04;101198.91;;;7.98;34.10
56582;BME280;42463;52.214;21.238;2023-04-03T09:41:16;101212.15;;;7.96;34.35
56582;BME280;42463;52.214;21.238;2023-04-03T09:43:24;101202.75;;;7.96;34.11
56582;BME280;42463;52.214;21.238;2023-04-03T09:45:33;101206.15;;;8.04;34.66
56582;BME280;42463;52.214;21.238;2023-04-03T09:47:39;101212.84;;;8.07;34.27
56582;BME280;42463;52.214;21.238;2023-04-03T09:49:46;101216.63;;;8.04;33.17
56582;BME280;42463;52.214;21.238;2023-04-03T09:51:51;101208.31;;;7.98;32.81
56582;BME280;42463;52.214;21.238;2023-04-03T09:53:58;101208.27;;;8.00;33.49
56582;BME280;42463;52.214;21.238;2023-04-03T09:58:27;101201.59;;;8.15;33.12
56582;BME280;42463;52.214;21.238;2023-04-03T10:00:36;101211.34;;;8.23;33.62
56582;BME280;42463;52.214;21.238;2023-04-03T10:02:42;101211.88;;;8.28;32.99
56582;BME280;42463;52.214;21.238;2023-04-03T10:04:48;101224.09;;;8.26;32.77
56582;BME280;42463;52.214;21.238;2023-04-03T10:06:55;101218.92;;;8.27;32.56
56582;BME280;42463;52.214;21.238;2023-04-03T10:09:03;101210.84;;;8.31;32.77
56582;BME280;42463;52.214;21.238;2023-04-03T10:11:17;101216.22;;;8.40;33.17
56582;BME280;42463;52.214;21.238;2023-04-03T10:13:23;101210.54;;;8.52;33.54
56582;BME280;42463;52.214;21.238;2023-04-03T10:15:29;101201.86;;;8.59;32.64
56582;BME280;42463;52.214;21.238;2023-04-03T10:17:49;101207.73;;;8.67;32.55
56582;BME280;42463;52.214;21.238;2023-04-03T10:19:59;101211.08;;;8.75;32.88
56582;BME280;42463;52.214;21.238;2023-04-03T10:22:16;101215.44;;;8.80;32.87
56582;BME280;42463;52.214;21.238;2023-04-03T10:24:29;101216.36;;;8.85;32.16
56582;BME280;42463;52.214;21.238;2023-04-03T10:26:48;101220.67;;;8.90;31.98
56582;BME280;42463;52.214;21.238;2023-04-03T10:29:00;101221.66;;;8.92;31.64
56582;BME280;42463;52.214;21.238;2023-04-03T10:31:13;101210.75;;;8.91;31.13
56582;BME280;42463;52.214;21.238;2023-04-03T10:33:28;101213.86;;;8.97;31.60
56582;BME280;42463;52.214;21.238;2023-04-03T10:35:45;101214.64;;;9.01;31.08
56582;BME280;42463;52.214;21.238;2023-04-03T10:38:03;101209.27;;;8.92;31.10
56582;BME280;42463;52.214;21.238;2023-04-03T10:40:19;101208.38;;;8.91;31.75
56582;BME280;42463;52.214;21.238;2023-04-03T10:42:34;101205.36;;;8.88;31.90
56582;BME280;42463;52.214;21.238;2023-04-03T10:44:54;101209.91;;;8.87;31.85
56582;BME280;42463;52.214;21.238;2023-04-03T10:47:05;101201.11;;;8.77;31.22
56582;BME280;42463;52.214;21.238;2023-04-03T10:49:25;101209.21;;;8.61;30.95
56582;BME280;42463;52.214;21.238;2023-04-03T10:51:39;101206.37;;;8.50;31.77
56582;BME280;42463;52.214;21.238;2023-04-03T10:53:52;101200.94;;;8.51;32.41
56582;BME280;42463;52.214;21.238;2023-04-03T10:56:06;101195.38;;;8.63;32.62
56582;BME280;42463;52.214;21.238;2023-04-03T10:58:20;101204.20;;;8.72;32.95
56582;BME280;42463;52.214;21.238;2023-04-03T11:00:37;101205.27;;;8.74;32.21
56582;BME280;42463;52.214;21.238;2023-04-03T11:02:49;101201.60;;;8.56;31.45
56582;BME280;42463;52.214;21.238;2023-04-03T11:05:01;101209.22;;;8.46;32.56
56582;BME280;42463;52.214;21.238;2023-04-03T11:07:12;101209.45;;;8.38;32.07
56582;BME280;42463;52.214;21.238;2023-04-03T11:09:23;101208.79;;;8.32;32.19
56582;BME280;42463;52.214;21.238;2023-04-03T11:11:33;101189.58;;;8.29;32.26
56582;BME280;42463;52.214;21.238;2023-04-03T11:13:43;101198.48;;;8.38;33.22
56582;BME280;42463;52.214;21.238;2023-04-03T11:15:50;101193.88;;;8.50;32.82